createdAt,value
2019-01-02T00:01:48.978Z,7.60
2019-01-02T00:04:19.761Z,7.60
2019-01-02T00:06:51.200Z,7.40
2019-01-02T00:09:21.508Z,7.40
2019-01-02T00:11:52.268Z,7.40
2019-01-02T00:14:22.622Z,7.40
2019-01-02T00:16:53.220Z,7.30
2019-01-02T00:19:23.559Z,7.30
2019-01-02T00:21:54.269Z,7.30
2019-01-02T00:24:24.672Z,7.20
2019-01-02T00:27:12.999Z,7.20
2019-01-02T00:29:43.610Z,7.10
2019-01-02T00:32:14.013Z,7.10
2019-01-02T00:34:44.635Z,7.10
2019-01-02T00:37:15.004Z,7.10
2019-01-02T00:39:45.478Z,7.10
2019-01-02T00:42:15.825Z,7.10
2019-01-02T00:44:46.142Z,7.10
2019-01-02T00:47:17.862Z,7.10
2019-01-02T00:49:48.328Z,7.00
2019-01-02T00:52:19.056Z,7.00
2019-01-02T00:54:49.378Z,7.00
2019-01-02T00:57:20.111Z,7.00
2019-01-02T00:59:50.440Z,6.90
2019-01-02T01:02:21.259Z,6.90
2019-01-02T01:04:51.734Z,6.80
2019-01-02T01:07:22.496Z,6.80
2019-01-02T01:09:52.810Z,6.70
2019-01-02T01:12:23.462Z,6.60
2019-01-02T01:14:53.787Z,6.60
2019-01-02T01:17:24.646Z,6.60
2019-01-02T01:19:55.001Z,6.60
2019-01-02T01:22:25.732Z,6.70
2019-01-02T01:24:56.026Z,6.80
2019-01-02T01:27:26.367Z,6.80
2019-01-02T01:29:57.082Z,6.80
2019-01-02T01:32:27.470Z,6.90
2019-01-02T01:34:58.122Z,6.90
2019-01-02T01:37:28.440Z,6.90
2019-01-02T01:39:58.780Z,6.70
2019-01-02T01:42:29.572Z,6.50
2019-01-02T01:44:59.926Z,6.40
2019-01-02T01:47:30.296Z,6.20
2019-01-02T01:50:00.921Z,6.00
2019-01-02T01:52:31.385Z,5.90
2019-01-02T01:55:01.700Z,5.80
2019-01-02T01:57:32.039Z,5.70
2019-01-02T02:00:02.377Z,5.70
2019-01-02T02:02:33.168Z,5.60
2019-01-02T02:05:03.482Z,5.60
2019-01-02T02:07:33.875Z,5.60
2019-01-02T02:10:06.220Z,5.50
2019-01-02T02:12:36.567Z,5.50
2019-01-02T02:15:07.900Z,5.60
2019-01-02T02:17:38.547Z,5.50
2019-01-02T02:20:10.886Z,5.50
2019-01-02T02:22:41.247Z,5.50
2019-01-02T02:25:14.514Z,5.50
2019-01-02T02:27:45.927Z,5.50
2019-01-02T02:30:16.640Z,5.50
2019-01-02T02:32:48.533Z,5.50
2019-01-02T02:35:19.268Z,5.50
2019-01-02T02:37:49.623Z,5.50
2019-01-02T02:40:19.925Z,5.50
2019-01-02T02:42:50.284Z,5.60
2019-01-02T02:45:21.018Z,5.60
2019-01-02T02:47:51.681Z,5.60
2019-01-02T02:50:22.401Z,5.70
2019-01-02T02:52:53.068Z,5.70
2019-01-02T02:55:25.915Z,5.80
2019-01-02T02:57:56.267Z,5.80
2019-01-02T03:00:26.571Z,5.80
2019-01-02T03:02:56.931Z,5.80
2019-01-02T03:05:27.327Z,5.80
2019-01-02T03:07:57.766Z,5.90
2019-01-02T03:10:28.369Z,5.90
2019-01-02T03:12:59.015Z,5.90
2019-01-02T03:15:30.889Z,5.80
2019-01-02T03:18:01.371Z,5.70
2019-01-02T03:20:31.698Z,5.60
2019-01-02T03:23:02.093Z,5.60
2019-01-02T03:25:32.829Z,5.50
2019-01-02T03:28:03.583Z,5.60
2019-01-02T03:30:34.200Z,5.50
2019-01-02T03:33:04.844Z,5.60
2019-01-02T03:35:35.158Z,5.60
2019-01-02T03:38:05.542Z,5.60
2019-01-02T03:40:35.881Z,5.60
2019-01-02T03:43:06.190Z,5.60
2019-01-02T03:45:36.587Z,5.70
2019-01-02T03:48:06.891Z,5.70
2019-01-02T03:50:37.235Z,5.70
2019-01-02T03:53:07.572Z,5.70
2019-01-02T03:55:37.910Z,5.70
2019-01-02T03:58:08.212Z,5.60
2019-01-02T04:00:38.645Z,5.60
2019-01-02T04:03:09.070Z,5.60
2019-01-02T04:05:39.401Z,5.50
2019-01-02T04:08:12.007Z,5.50
2019-01-02T04:10:42.355Z,5.50
2019-01-02T04:13:12.682Z,5.40
2019-01-02T04:15:44.111Z,5.30
2019-01-02T04:18:14.431Z,5.20
2019-01-02T04:20:44.784Z,5.10
2019-01-02T04:23:15.077Z,5.00
2019-01-02T04:25:45.435Z,5.00
2019-01-02T04:28:17.329Z,4.90
2019-01-02T04:30:47.684Z,4.80
2019-01-02T04:33:18.115Z,4.80
2019-01-02T04:35:48.472Z,4.70
2019-01-02T04:38:18.795Z,4.70
2019-01-02T04:40:49.159Z,4.60
2019-01-02T04:43:19.483Z,4.50
2019-01-02T04:45:52.106Z,4.50
2019-01-02T04:48:22.411Z,4.40
2019-01-02T04:50:52.748Z,4.40
2019-01-02T04:53:23.083Z,4.30
2019-01-02T04:55:53.428Z,4.20
2019-01-02T04:58:23.752Z,4.20
2019-01-02T05:00:54.121Z,4.20
2019-01-02T05:03:24.460Z,4.10
2019-01-02T05:05:54.833Z,4.10
2019-01-02T05:08:25.219Z,4.10
2019-01-02T05:10:55.562Z,4.00
2019-01-02T05:13:25.903Z,4.00
2019-01-02T05:15:56.279Z,4.00
2019-01-02T05:18:26.654Z,3.90
2019-01-02T05:20:57.024Z,3.90
2019-01-02T05:23:27.417Z,3.80
2019-01-02T05:25:57.880Z,3.80
2019-01-02T05:28:28.214Z,3.70
2019-01-02T05:30:58.555Z,3.70
2019-01-02T05:33:28.901Z,3.60
2019-01-02T05:35:59.254Z,3.60
2019-01-02T05:38:31.074Z,3.50
2019-01-02T05:41:01.428Z,3.50
2019-01-02T05:43:31.734Z,3.50
2019-01-02T05:46:02.090Z,3.60
2019-01-02T05:48:32.518Z,3.50
2019-01-02T05:51:03.083Z,3.50
2019-01-02T05:53:33.407Z,3.50
2019-01-02T05:56:03.863Z,3.50
2019-01-02T05:58:34.203Z,3.60
2019-01-02T06:01:04.586Z,3.60
2019-01-02T06:03:34.909Z,3.70
2019-01-02T06:06:05.264Z,3.70
2019-01-02T06:08:35.706Z,3.80
2019-01-02T06:11:06.063Z,3.90
2019-01-02T06:13:36.391Z,3.90
2019-01-02T06:16:06.746Z,4.10
2019-01-02T06:18:37.114Z,4.10
2019-01-02T06:21:07.462Z,4.30
2019-01-02T06:23:37.805Z,4.30
2019-01-02T06:26:08.222Z,4.40
2019-01-02T06:28:38.550Z,4.50
2019-01-02T06:31:08.937Z,4.50
2019-01-02T06:33:39.263Z,4.60
2019-01-02T06:36:09.613Z,4.50
2019-01-02T06:38:40.849Z,4.50
2019-01-02T06:41:11.285Z,4.50
2019-01-02T06:43:41.597Z,4.50
2019-01-02T06:46:11.957Z,4.50
2019-01-02T06:48:42.289Z,4.50
2019-01-02T06:51:12.631Z,4.60
2019-01-02T06:53:42.947Z,4.70
2019-01-02T06:56:13.307Z,4.70
2019-01-02T06:58:43.664Z,4.70
2019-01-02T07:01:14.024Z,4.70
2019-01-02T07:03:44.336Z,4.70
2019-01-02T07:06:14.775Z,4.60
2019-01-02T07:08:45.124Z,4.60
2019-01-02T07:11:15.505Z,4.70
2019-01-02T07:13:46.746Z,4.60
2019-01-02T07:16:17.540Z,4.60
2019-01-02T07:18:47.938Z,4.60
2019-01-02T07:21:18.280Z,4.60
2019-01-02T07:23:48.632Z,4.60
2019-01-02T07:26:18.951Z,4.60
2019-01-02T07:28:49.379Z,4.70
2019-01-02T07:31:19.691Z,4.80
2019-01-02T07:33:56.096Z,4.80
2019-01-02T07:36:43.755Z,4.90
2019-01-02T07:39:46.834Z,4.90
2019-01-02T07:42:40.464Z,4.90
2019-01-02T07:45:47.675Z,4.90
2019-01-02T07:48:34.222Z,4.90
2019-01-02T07:51:40.749Z,5.00
2019-01-02T07:55:01.013Z,4.90
2019-01-02T07:58:33.986Z,4.90
2019-01-02T08:02:03.265Z,5.00
2019-01-02T08:05:14.798Z,5.00
2019-01-02T08:08:20.362Z,5.00
2019-01-02T08:11:56.430Z,5.10
2019-01-02T08:15:03.677Z,5.20
2019-01-02T08:18:15.447Z,5.20
2019-01-02T08:21:42.480Z,5.30
2019-01-02T08:24:45.234Z,5.20
2019-01-02T08:28:04.782Z,5.20
2019-01-02T08:31:40.863Z,5.30
2019-01-02T08:34:45.790Z,5.40
2019-01-02T08:37:55.999Z,5.40
2019-01-02T08:40:52.352Z,5.50
2019-01-02T08:43:58.251Z,5.50
2019-01-02T08:47:06.322Z,5.40
2019-01-02T08:50:19.673Z,5.30
2019-01-02T08:53:12.562Z,5.40
2019-01-02T08:56:26.289Z,5.40
2019-01-02T08:59:28.354Z,5.50
2019-01-02T09:02:37.296Z,5.50
2019-01-02T09:06:03.669Z,5.50
2019-01-02T09:09:10.094Z,5.60
2019-01-02T09:12:16.082Z,5.70
2019-01-02T09:15:39.729Z,5.60
2019-01-02T09:18:28.964Z,5.70
2019-01-02T09:21:49.204Z,5.70
2019-01-02T09:24:47.622Z,5.80
2019-01-02T09:27:34.505Z,5.90
2019-01-02T09:30:47.655Z,6.00
2019-01-02T09:34:01.143Z,5.90
2019-01-02T09:37:26.950Z,6.10
2019-01-02T09:40:11.690Z,6.20
2019-01-02T09:43:38.356Z,6.20
2019-01-02T09:46:31.716Z,6.20
2019-01-02T09:49:26.223Z,6.20
2019-01-02T09:52:51.648Z,6.30
2019-01-02T09:56:02.859Z,6.30
2019-01-02T09:59:10.164Z,6.20
2019-01-02T10:02:15.779Z,6.20
2019-01-02T10:05:32.179Z,6.30
2019-01-02T10:08:40.743Z,6.40
2019-01-02T10:11:28.434Z,6.40
2019-01-02T10:14:47.886Z,6.60
2019-01-02T10:18:14.368Z,6.70
2019-01-02T10:21:34.655Z,6.70
2019-01-02T10:24:39.535Z,6.80
2019-01-02T10:27:42.370Z,6.90
2019-01-02T10:30:49.430Z,6.90
2019-01-02T10:33:56.092Z,7.00
2019-01-02T10:36:58.472Z,7.00
2019-01-02T10:40:09.898Z,7.10
2019-01-02T10:43:12.598Z,7.20
2019-01-02T10:46:36.003Z,7.10
2019-01-02T10:49:34.483Z,7.10
2019-01-02T10:52:41.060Z,7.00
2019-01-02T10:55:39.306Z,7.00
2019-01-02T10:58:59.922Z,7.40
2019-01-02T11:02:14.801Z,8.00
2019-01-02T11:05:17.865Z,8.30
2019-01-02T11:08:35.309Z,8.20
2019-01-02T11:11:53.574Z,8.00
2019-01-02T11:15:12.903Z,7.70
2019-01-02T11:18:17.499Z,7.70
2019-01-02T11:21:21.148Z,8.20
2019-01-02T11:24:28.391Z,8.60
2019-01-02T11:27:43.812Z,8.70
2019-01-02T11:31:04.955Z,9.10
2019-01-02T11:34:02.205Z,9.30
2019-01-02T11:37:24.903Z,9.00
2019-01-02T11:40:31.139Z,9.40
2019-01-02T11:44:06.803Z,9.90
2019-01-02T11:46:37.459Z,10.60
2019-01-02T11:49:07.890Z,11.00
2019-01-02T11:51:38.289Z,10.80
2019-01-02T11:54:08.762Z,11.00
2019-01-02T11:56:39.084Z,11.00
2019-01-02T11:59:09.459Z,11.30
2019-01-02T12:01:39.846Z,11.20
2019-01-02T12:04:10.204Z,11.40
2019-01-02T12:06:40.657Z,11.60
2019-01-02T12:09:11.219Z,12.10
2019-01-02T12:11:41.692Z,11.80
2019-01-02T12:14:12.056Z,11.60
2019-01-02T12:16:42.467Z,11.00
2019-01-02T12:19:12.784Z,10.80
2019-01-02T12:21:43.223Z,10.40
2019-01-02T12:24:13.665Z,10.10
2019-01-02T12:26:44.014Z,9.80
2019-01-02T12:29:14.463Z,9.70
2019-01-02T12:31:44.848Z,9.60
2019-01-02T12:34:16.095Z,9.60
2019-01-02T12:36:47.246Z,9.50
2019-01-02T12:39:17.667Z,9.40
2019-01-02T12:41:47.989Z,9.30
2019-01-02T12:44:18.363Z,9.30
2019-01-02T12:46:48.735Z,9.00
2019-01-02T12:49:19.135Z,8.80
2019-01-02T12:51:49.462Z,8.30
2019-01-02T12:54:19.803Z,8.00
2019-01-02T12:56:50.160Z,7.60
2019-01-02T12:59:26.561Z,7.20
2019-01-02T13:02:17.524Z,6.70
2019-01-02T13:05:24.202Z,6.10
2019-01-02T13:08:40.680Z,5.80
2019-01-02T13:11:30.646Z,5.70
2019-01-02T13:14:32.656Z,5.60
2019-01-02T13:17:54.682Z,5.60
2019-01-02T13:20:40.242Z,5.80
2019-01-02T13:23:29.822Z,6.40
2019-01-02T13:26:32.802Z,7.30
2019-01-02T13:29:22.323Z,8.30
2019-01-02T13:32:08.795Z,8.80
2019-01-02T13:35:35.263Z,9.00
2019-01-02T13:38:35.844Z,9.20
2019-01-02T13:41:34.976Z,9.90
2019-01-02T13:44:45.088Z,10.90
2019-01-02T13:47:47.505Z,11.70
2019-01-02T13:50:52.436Z,12.50
2019-01-02T13:53:22.753Z,13.30
2019-01-02T13:55:53.115Z,13.70
2019-01-02T13:58:23.465Z,13.80
2019-01-02T14:00:53.870Z,14.00
2019-01-02T14:03:25.317Z,13.80
2019-01-02T14:05:55.751Z,13.20
2019-01-02T14:08:26.190Z,12.40
2019-01-02T14:10:56.705Z,12.10
2019-01-02T14:13:27.050Z,12.20
2019-01-02T14:15:57.443Z,12.50
2019-01-02T14:18:27.791Z,12.90
2019-01-02T14:20:58.198Z,13.20
2019-01-02T14:23:28.552Z,13.20
2019-01-02T14:25:59.053Z,13.20
2019-01-02T14:28:29.397Z,13.10
2019-01-02T14:30:59.786Z,12.80
2019-01-02T14:33:31.100Z,12.20
2019-01-02T14:36:01.491Z,11.80
2019-01-02T14:38:31.834Z,11.20
2019-01-02T14:41:02.253Z,10.80
2019-01-02T14:43:32.617Z,10.30
2019-01-02T14:46:03.129Z,10.00
2019-01-02T14:48:33.534Z,9.60
2019-01-02T14:51:03.941Z,9.10
2019-01-02T14:53:34.299Z,8.80
2019-01-02T14:56:04.692Z,8.60
2019-01-02T14:58:35.025Z,8.40
2019-01-02T15:01:05.370Z,8.20
2019-01-02T15:03:35.785Z,8.00
2019-01-02T15:06:06.124Z,7.90
2019-01-02T15:08:36.640Z,7.70
2019-01-02T15:11:08.386Z,7.50
2019-01-02T15:13:38.866Z,7.40
2019-01-02T15:16:09.255Z,7.40
2019-01-02T15:18:39.695Z,7.20
2019-01-02T15:21:10.097Z,7.20
2019-01-02T15:23:41.242Z,7.10
2019-01-02T15:26:11.636Z,7.10
2019-01-02T15:28:41.997Z,7.10
2019-01-02T15:31:12.468Z,7.00
2019-01-02T15:33:42.803Z,6.90
2019-01-02T15:36:13.183Z,6.80
2019-01-02T15:38:43.914Z,6.80
2019-01-02T15:41:14.429Z,6.80
2019-01-02T15:43:44.748Z,6.80
2019-01-02T15:46:15.167Z,6.80
2019-01-02T15:48:45.505Z,6.70
2019-01-02T15:51:15.911Z,6.60
2019-01-02T15:53:46.272Z,6.50
2019-01-02T15:56:16.681Z,6.40
2019-01-02T15:58:47.076Z,6.40
2019-01-02T16:01:17.481Z,6.20
2019-01-02T16:03:47.814Z,6.20
2019-01-02T16:06:18.278Z,6.30
2019-01-02T16:08:48.635Z,6.40
2019-01-02T16:11:19.138Z,6.40
2019-01-02T16:13:49.785Z,6.40
2019-01-02T16:16:20.187Z,6.40
2019-01-02T16:18:50.516Z,6.40
2019-01-02T16:21:20.902Z,6.30
2019-01-02T16:23:51.229Z,6.30
2019-01-02T16:26:21.628Z,6.20
2019-01-02T16:28:51.953Z,6.20
2019-01-02T16:31:22.358Z,6.10
2019-01-02T16:33:52.779Z,6.00
2019-01-02T16:36:23.155Z,5.90
2019-01-02T16:38:53.489Z,5.80
2019-01-02T16:41:23.965Z,5.70
2019-01-02T16:43:54.294Z,5.60
2019-01-02T16:46:24.671Z,5.60
2019-01-02T16:48:55.006Z,5.50
2019-01-02T16:51:25.395Z,5.30
2019-01-02T16:53:55.787Z,5.30
2019-01-02T16:56:26.134Z,5.20
2019-01-02T16:58:57.343Z,5.10
2019-01-02T17:01:27.679Z,5.00
2019-01-02T17:03:58.059Z,4.90
2019-01-02T17:06:28.374Z,4.80
2019-01-02T17:08:58.767Z,4.70
2019-01-02T17:11:29.101Z,4.70
2019-01-02T17:13:59.485Z,4.60
2019-01-02T17:16:29.823Z,4.50
2019-01-02T17:19:00.193Z,4.40
2019-01-02T17:21:30.526Z,4.40
2019-01-02T17:24:01.398Z,4.30
2019-01-02T17:26:31.731Z,4.20
2019-01-02T17:29:02.116Z,4.10
2019-01-02T17:31:32.484Z,4.00
2019-01-02T17:34:02.896Z,3.80
2019-01-02T17:36:33.247Z,3.70
2019-01-02T17:39:04.531Z,3.60
2019-01-02T17:41:34.877Z,3.50
2019-01-02T17:44:05.258Z,3.40
2019-01-02T17:46:35.591Z,3.30
2019-01-02T17:49:05.991Z,3.30
2019-01-02T17:51:36.323Z,3.20
2019-01-02T17:54:06.716Z,3.10
2019-01-02T17:56:37.043Z,3.00
2019-01-02T17:59:07.432Z,2.90
2019-01-02T18:01:38.070Z,2.80
2019-01-02T18:04:08.461Z,2.70
2019-01-02T18:06:38.804Z,2.60
2019-01-02T18:09:09.662Z,2.50
2019-01-02T18:11:40.047Z,2.40
2019-01-02T18:14:10.377Z,2.40
2019-01-02T18:16:40.785Z,2.30
2019-01-02T18:19:11.222Z,2.30
2019-01-02T18:21:41.685Z,2.30
2019-01-02T18:24:12.486Z,2.20
2019-01-02T18:26:42.855Z,2.20
2019-01-02T18:29:13.328Z,2.20
2019-01-02T18:31:43.792Z,2.10
2019-01-02T18:34:16.069Z,2.10
2019-01-02T18:36:46.432Z,2.00
2019-01-02T18:39:16.853Z,2.00
2019-01-02T18:41:47.191Z,2.00
2019-01-02T18:44:20.553Z,2.00
2019-01-02T18:46:49.590Z,2.00
2019-01-02T18:49:19.949Z,2.00
2019-01-02T18:51:50.267Z,1.90
2019-01-02T18:54:20.659Z,1.90
2019-01-02T18:56:51.022Z,1.90
2019-01-02T18:59:21.409Z,1.80
2019-01-02T19:01:51.748Z,1.80
2019-01-02T19:04:22.135Z,1.80
2019-01-02T19:06:52.482Z,1.70
2019-01-02T19:09:22.883Z,1.70
2019-01-02T19:11:53.593Z,1.70
2019-01-02T19:14:23.926Z,1.60
2019-01-02T19:16:54.341Z,1.60
2019-01-02T19:19:24.805Z,1.60
2019-01-02T19:21:55.141Z,1.60
2019-01-02T19:24:37.172Z,1.60
2019-01-02T19:27:08.656Z,1.50
2019-01-02T19:29:39.063Z,1.50
2019-01-02T19:32:09.396Z,1.50
2019-01-02T19:34:40.871Z,1.40
2019-01-02T19:37:11.206Z,1.40
2019-01-02T19:39:41.631Z,1.30
2019-01-02T19:42:12.059Z,1.30
2019-01-02T19:44:42.519Z,1.20
2019-01-02T19:47:12.862Z,1.10
2019-01-02T19:49:43.336Z,1.10
2019-01-02T19:52:13.658Z,1.00
2019-01-02T19:54:44.066Z,0.90
2019-01-02T19:57:14.402Z,1.00
2019-01-02T19:59:44.811Z,0.90
2019-01-02T20:02:15.196Z,1.00
2019-01-02T20:04:45.713Z,1.10
2019-01-02T20:07:16.083Z,1.10
2019-01-02T20:09:46.592Z,1.10
2019-01-02T20:12:16.944Z,1.10
2019-01-02T20:14:47.363Z,1.00
2019-01-02T20:17:17.739Z,0.90
2019-01-02T20:19:48.158Z,0.80
2019-01-02T20:22:18.488Z,0.70
2019-01-02T20:24:48.889Z,0.60
2019-01-02T20:27:19.237Z,0.50
2019-01-02T20:29:49.705Z,0.50
2019-01-02T20:32:20.286Z,0.40
2019-01-02T20:34:51.721Z,0.30
2019-01-02T20:37:22.167Z,0.30
2019-01-02T20:39:52.646Z,0.20
2019-01-02T20:42:23.685Z,0.20
2019-01-02T20:44:54.132Z,0.10
2019-01-02T20:47:24.578Z,0.10
2019-01-02T20:49:54.935Z,0.10
2019-01-02T20:52:25.269Z,0.00
2019-01-02T20:54:55.679Z,0.00
2019-01-02T20:57:26.026Z,0.00
2019-01-02T20:59:56.429Z,0.00
2019-01-02T21:02:26.838Z,-0.10
2019-01-02T21:04:57.598Z,-0.10
2019-01-02T21:07:28.089Z,-0.10
2019-01-02T21:09:58.483Z,-0.20
2019-01-02T21:12:28.820Z,-0.20
2019-01-02T21:14:59.231Z,-0.20
2019-01-02T21:17:29.612Z,-0.20
2019-01-02T21:20:00.049Z,-0.30
2019-01-02T21:22:30.498Z,-0.30
2019-01-02T21:25:01.965Z,-0.30
2019-01-02T21:27:32.373Z,-0.30
2019-01-02T21:30:02.903Z,-0.40
2019-01-02T21:32:33.395Z,-0.40
2019-01-02T21:35:03.910Z,-0.40
2019-01-02T21:37:34.298Z,-0.40
2019-01-02T21:40:05.199Z,-0.50
2019-01-02T21:42:35.526Z,-0.50
2019-01-02T21:45:07.085Z,-0.50
2019-01-02T21:47:37.461Z,-0.50
2019-01-02T21:50:08.558Z,-0.50
2019-01-02T21:52:38.895Z,-0.60
2019-01-02T21:55:09.350Z,-0.60
2019-01-02T21:57:39.788Z,-0.60
2019-01-02T22:00:13.721Z,-0.60
2019-01-02T22:02:44.052Z,-0.70
2019-01-02T22:05:14.585Z,-0.70
2019-01-02T22:07:44.958Z,-0.70
2019-01-02T22:10:15.460Z,-0.70
2019-01-02T22:12:45.812Z,-0.80
2019-01-02T22:15:16.168Z,-0.80
2019-01-02T22:17:46.700Z,-0.80
2019-01-02T22:20:17.437Z,-0.80
2019-01-02T22:22:47.867Z,-0.80
2019-01-02T22:25:18.319Z,-0.70
2019-01-02T22:27:48.725Z,-0.70
2019-01-02T22:30:19.265Z,-0.70
2019-01-02T22:32:52.589Z,-0.70
2019-01-02T22:35:22.972Z,-0.70
2019-01-02T22:37:53.335Z,-0.70
2019-01-02T22:40:23.793Z,-0.80
2019-01-02T22:42:54.218Z,-0.80
2019-01-02T22:45:24.575Z,-0.80
2019-01-02T22:47:54.943Z,-0.80
2019-01-02T22:50:25.336Z,-0.90
2019-01-02T22:52:55.759Z,-0.90
2019-01-02T22:55:27.217Z,-0.90
2019-01-02T22:57:57.548Z,-0.90
2019-01-02T23:00:55.745Z,-0.90
2019-01-02T23:03:40.856Z,-1.00
2019-01-02T23:06:29.084Z,-1.00
2019-01-02T23:09:30.636Z,-1.00
2019-01-02T23:12:18.924Z,-1.00
2019-01-02T23:15:07.201Z,-1.10
2019-01-02T23:17:54.653Z,-1.10
2019-01-02T23:20:50.063Z,-1.10
2019-01-02T23:23:51.461Z,-1.10
2019-01-02T23:26:39.406Z,-1.10
2019-01-02T23:29:46.990Z,-1.10
2019-01-02T23:32:42.626Z,-1.20
2019-01-02T23:35:38.381Z,-1.20
2019-01-02T23:38:38.134Z,-1.30
2019-01-02T23:41:43.012Z,-1.30
2019-01-02T23:44:32.399Z,-1.40
2019-01-02T23:47:26.959Z,-1.40
2019-01-02T23:50:15.279Z,-1.50
2019-01-02T23:53:06.886Z,-1.50
2019-01-02T23:55:59.149Z,-1.50
2019-01-02T23:58:51.390Z,-1.60
